Time;durP1;ratioP1;P1;durP2;ratioP2;P2;SDS_P1;SDS_P2;PMS_P1;PMS_P2;Temp;Humidity;BMP_temperature;BMP_pressure;BME280_temperature;BME280_humidity;BME280_pressure;Samples;Min_cycle;Max_cycle;Signal;HPM_P1;HPM_P2
2021/05/06 00:31:07;;;;;;;2.70;1.80;;;10.00;46.70;;;;;;5048480;28;20388;-78
2021/05/06 00:33:31;;;;;;;1.92;1.65;;;9.90;46.60;;;;;;5053594;28;20047;-79
2021/05/06 00:35:57;;;;;;;2.40;2.03;;;9.90;46.70;;;;;;5050200;28;20025;-79
2021/05/06 00:38:27;;;;;;;3.00;2.10;;;9.80;47.10;;;;;;5065929;28;20054;-78
2021/05/06 01:07:12;;;;;;;1.83;1.67;;;9.40;46.40;;;;;;5067177;28;20143;-80
2021/05/06 01:09:44;;;;;;;3.40;1.85;;;9.30;46.30;;;;;;5066968;28;20510;-80
2021/05/06 01:12:10;;;;;;;1.88;1.77;;;9.30;46.40;;;;;;5066810;28;20395;-78
2021/05/06 01:14:36;;;;;;;3.63;1.60;;;9.30;46.40;;;;;;5049382;28;20499;-79
2021/05/06 01:17:03;;;;;;;2.47;1.75;;;9.20;46.30;;;;;;5082896;28;20025;-80
2021/05/06 01:19:29;;;;;;;6.45;2.25;;;9.20;46.40;;;;;;5066584;28;20035;-79
2021/05/06 01:21:55;;;;;;;1.83;1.73;;;9.20;46.40;;;;;;5066079;28;20031;-78
2021/05/06 01:24:23;;;;;;;4.47;2.35;;;9.10;46.30;;;;;;5049555;28;20044;-79
2021/05/06 01:29:43;;;;;;;6.50;1.95;;;9.00;46.20;;;;;;5065755;28;20033;-78
2021/05/06 01:32:37;;;;;;;3.03;1.77;;;9.00;46.20;;;;;;5060355;28;20083;-78
2021/05/06 01:35:07;;;;;;;1.83;1.70;;;9.00;46.30;;;;;;5047400;28;20029;-79
2021/05/06 01:40:42;;;;;;;2.92;2.10;;;8.90;46.20;;;;;;5060746;28;20048;-80
2021/05/06 01:44:02;;;;;;;2.47;1.77;;;8.90;46.20;;;;;;5030798;28;20067;-79
2021/05/06 01:58:57;;;;;;;2.00;1.80;;;8.70;46.20;;;;;;5050625;28;20127;-79
2021/05/06 02:01:24;;;;;;;2.50;1.80;;;8.60;46.00;;;;;;5050593;28;20407;-79
2021/05/06 02:03:51;;;;;;;2.13;1.92;;;8.60;46.10;;;;;;5050690;28;20037;-79
2021/05/06 02:06:17;;;;;;;2.00;1.80;;;8.60;46.10;;;;;;5033860;28;20124;-78
2021/05/06 02:08:43;;;;;;;2.95;2.20;;;8.50;46.00;;;;;;5050459;28;20128;-78
2021/05/06 02:11:15;;;;;;;2.42;2.15;;;8.50;46.10;;;;;;5050192;28;20484;-79
2021/05/06 02:14:10;;;;;;;1.98;1.77;;;8.50;46.10;;;;;;5046606;28;20021;-78
2021/05/06 02:16:44;;;;;;;;;;;8.50;46.10;;;;;;5052186;28;20115;-79
2021/05/06 02:19:10;;;;;;;2.47;2.05;;;8.50;46.10;;;;;;5051231;28;19934;-78
2021/05/06 02:21:39;;;;;;;1.95;1.70;;;8.40;45.80;;;;;;5034271;28;20191;-78
2021/05/06 02:24:07;;;;;;;3.22;1.92;;;8.40;45.90;;;;;;5049810;28;20476;-78
2021/05/06 02:26:34;;;;;;;4.13;2.20;;;8.40;46.00;;;;;;5033981;28;20037;-81
2021/05/06 02:29:00;;;;;;;2.40;2.20;;;8.40;46.10;;;;;;5034435;28;20032;-80
2021/05/06 02:31:27;;;;;;;2.42;1.92;;;8.40;46.10;;;;;;5034689;28;20021;-78
2021/05/06 02:33:54;;;;;;;2.58;2.08;;;8.40;46.20;;;;;;5050663;28;20031;-79
2021/05/06 02:36:19;;;;;;;2.30;2.03;;;8.40;46.20;;;;;;5050566;28;20052;-79
2021/05/06 02:38:45;;;;;;;2.70;1.70;;;8.40;46.30;;;;;;5050610;28;20067;-79
2021/05/06 02:41:11;;;;;;;2.22;2.03;;;8.40;46.30;;;;;;5050852;28;20040;-79
2021/05/06 02:43:37;;;;;;;3.10;2.22;;;8.40;46.30;;;;;;5050830;28;20033;-79
2021/05/06 02:46:03;;;;;;;2.13;1.92;;;8.40;46.30;;;;;;5034094;28;20041;-79
2021/05/06 02:48:29;;;;;;;2.15;1.90;;;8.40;46.40;;;;;;5034481;28;20565;-80
2021/05/06 02:51:00;;;;;;;3.25;2.33;;;8.40;46.40;;;;;;5034084;28;20029;-80
2021/05/06 02:53:34;;;;;;;2.70;2.00;;;8.40;46.40;;;;;;5033789;28;20033;-79
2021/05/06 02:56:12;;;;;;;1.93;1.80;;;8.40;46.40;;;;;;5033471;28;20377;-79
2021/05/06 03:04:01;;;;;;;2.30;1.90;;;8.40;46.40;;;;;;5053219;28;20388;-78
2021/05/06 03:06:31;;;;;;;1.77;1.67;;;8.40;46.30;;;;;;5036763;28;20095;-78
2021/05/06 03:09:02;;;;;;;2.78;1.75;;;8.40;46.30;;;;;;5036989;28;20369;-79
2021/05/06 03:11:44;;;;;;;1.95;1.75;;;8.40;46.40;;;;;;5053015;28;20079;-79
2021/05/06 03:14:27;;;;;;;2.50;1.90;;;8.40;46.40;;;;;;5036740;28;20457;-78
2021/05/06 03:25:10;;;;;;;2.10;1.90;;;8.40;46.10;;;;;;5052879;28;20028;-77
2021/05/06 03:27:44;;;;;;;1.85;1.73;;;8.40;46.20;;;;;;5036042;28;20123;-79
2021/05/06 04:18:36;;;;;;;1.80;1.70;;;8.20;45.90;;;;;;5052280;28;20031;-80
2021/05/06 04:26:42;;;;;;;1.63;1.52;;;8.20;46.20;;;;;;5060308;28;20078;-79
2021/05/06 04:37:22;;;;;;;1.90;1.80;;;8.20;46.40;;;;;;5073347;28;20064;-79
2021/05/06 04:39:55;;;;;;;1.83;1.70;;;8.20;46.40;;;;;;5072929;28;20201;-82
2021/05/06 04:56:07;;;;;;;3.00;1.58;;;8.10;46.40;;;;;;5067315;28;20024;-77
2021/05/06 05:06:31;;;;;;;1.52;1.40;;;8.10;46.40;;;;;;5064937;28;20044;-78
2021/05/06 05:09:37;;;;;;;;;;;8.10;46.40;;;;;;5047690;28;20037;-78
2021/05/06 05:20:24;;;;;;;2.03;1.50;;;8.10;46.30;;;;;;5058330;28;20070;-77
2021/05/06 05:27:49;;;;;;;1.33;1.25;;;8.20;46.60;;;;;;5065872;28;20027;-76
2021/05/06 05:30:16;;;;;;;3.92;1.70;;;8.20;46.70;;;;;;5041491;28;20032;-75
2021/05/06 05:32:42;;;;;;;1.50;1.40;;;8.20;46.70;;;;;;5064414;28;20523;-74
2021/05/06 05:35:31;;;;;;;1.40;1.30;;;8.20;46.70;;;;;;5048105;28;20033;-78
2021/05/06 05:38:19;;;;;;;2.25;1.58;;;8.30;46.80;;;;;;5064245;28;20032;-76
2021/05/06 05:56:53;;;;;;;1.80;1.50;;;8.70;47.20;;;;;;5063083;28;20588;-76
2021/05/06 05:59:19;;;;;;;1.95;1.40;;;8.70;47.20;;;;;;5060529;28;20035;-76
2021/05/06 06:01:45;;;;;;;1.70;1.42;;;8.70;47.10;;;;;;5048853;28;20788;-75
2021/05/06 06:04:11;;;;;;;1.80;1.63;;;8.80;47.30;;;;;;5048137;28;20111;-78
2021/05/06 06:06:37;;;;;;;1.60;1.50;;;8.90;47.40;;;;;;5039817;28;20029;-76
2021/05/06 06:09:04;;;;;;;1.90;1.80;;;8.90;47.40;;;;;;5070393;28;20025;-76
2021/05/06 06:11:32;;;;;;;1.70;1.60;;;8.90;47.30;;;;;;5064924;28;20245;-74
2021/05/06 06:14:03;;;;;;;2.38;1.90;;;9.00;47.50;;;;;;5055238;28;20077;-78
2021/05/06 06:16:31;;;;;;;2.05;1.50;;;9.00;47.50;;;;;;5064652;28;20035;-78
2021/05/06 06:18:58;;;;;;;1.80;1.70;;;9.10;47.60;;;;;;5042100;28;20551;-77
2021/05/06 06:23:53;;;;;;;1.80;1.65;;;9.20;47.70;;;;;;5066958;28;20258;-78
2021/05/06 06:26:21;;;;;;;2.55;1.70;;;9.20;47.70;;;;;;5065257;28;20040;-79
2021/05/06 06:28:50;;;;;;;1.90;1.60;;;9.30;47.80;;;;;;5065166;28;20036;-76
2021/05/06 06:31:26;;;;;;;3.78;2.17;;;9.30;47.80;;;;;;5065173;28;20033;-77
2021/05/06 06:33:52;;;;;;;1.70;1.60;;;9.40;47.90;;;;;;5066831;28;20021;-78
2021/05/06 06:36:19;;;;;;;2.35;2.00;;;9.40;47.90;;;;;;5052349;28;20119;-79
2021/05/06 06:38:45;;;;;;;1.67;1.52;;;9.40;47.90;;;;;;5051833;28;20036;-77
2021/05/06 06:41:13;;;;;;;1.65;1.55;;;9.50;48.10;;;;;;5052507;28;20614;-77
2021/05/06 06:43:44;;;;;;;1.88;1.77;;;9.60;48.30;;;;;;5052528;28;20036;-77
2021/05/06 06:46:11;;;;;;;2.33;1.73;;;9.70;48.40;;;;;;5052091;28;20127;-77
2021/05/06 06:48:37;;;;;;;2.22;1.77;;;9.70;48.90;;;;;;5069123;28;20025;-77
2021/05/06 06:51:04;;;;;;;1.92;1.73;;;9.80;48.40;;;;;;5068939;28;20220;-77
2021/05/06 06:53:30;;;;;;;1.95;1.75;;;10.00;48.60;;;;;;5051846;28;20031;-80
2021/05/06 06:55:57;;;;;;;1.90;1.80;;;10.00;48.50;;;;;;5070431;28;20035;-79
2021/05/06 06:58:24;;;;;;;2.03;1.67;;;10.20;48.70;;;;;;5069219;28;20505;-79
2021/05/06 07:00:50;;;;;;;1.73;1.48;;;10.30;48.80;;;;;;5069429;28;20041;-78
2021/05/06 07:03:17;;;;;;;1.90;1.80;;;10.40;48.80;;;;;;5051971;28;20036;-78
2021/05/06 07:05:43;;;;;;;2.10;1.90;;;10.40;48.80;;;;;;5068843;28;20039;-78
2021/05/06 07:08:21;;;;;;;2.65;1.83;;;10.60;49.00;;;;;;5068658;28;20024;-79
2021/05/06 07:10:48;;;;;;;1.88;1.58;;;10.70;49.20;;;;;;5069358;28;20035;-79
2021/05/06 07:13:18;;;;;;;2.00;1.60;;;10.80;49.20;;;;;;5068671;28;20020;-79
2021/05/06 07:15:55;;;;;;;2.97;1.80;;;11.00;49.40;;;;;;5052352;28;20032;-78
2021/05/06 07:18:22;;;;;;;2.13;1.92;;;11.20;49.60;;;;;;5052184;28;20177;-78
2021/05/06 07:20:51;;;;;;;2.80;1.70;;;11.30;50.00;;;;;;5068513;28;20036;-81
2021/05/06 07:23:20;;;;;;;2.03;1.77;;;11.40;49.40;;;;;;5051894;28;20028;-79
2021/05/06 07:25:48;;;;;;;2.50;2.10;;;11.50;49.40;;;;;;5051709;28;20037;-79
2021/05/06 07:28:17;;;;;;;1.80;1.60;;;11.70;49.60;;;;;;5068691;28;20033;-78
2021/05/06 07:30:48;;;;;;;2.92;1.85;;;11.80;49.60;;;;;;5067208;28;20058;-83
2021/05/06 07:33:15;;;;;;;3.05;1.88;;;11.90;49.70;;;;;;5051580;28;20344;-78
2021/05/06 07:35:42;;;;;;;3.15;1.95;;;11.90;49.60;;;;;;5046020;28;20059;-80
2021/05/06 07:38:10;;;;;;;1.70;1.60;;;12.00;49.60;;;;;;5051072;28;20028;-80
2021/05/06 07:40:37;;;;;;;1.63;1.52;;;12.00;49.60;;;;;;5051060;28;20021;-78
2021/05/06 07:43:04;;;;;;;2.25;1.42;;;12.10;49.70;;;;;;5067385;28;20385;-77
2021/05/06 07:45:31;;;;;;;2.90;1.95;;;12.30;49.90;;;;;;5065995;28;20041;-78
2021/05/06 07:47:58;;;;;;;2.80;1.70;;;12.30;49.80;;;;;;5067286;28;20032;-79
2021/05/06 07:50:24;;;;;;;2.38;1.77;;;12.40;49.90;;;;;;5051259;28;20029;-77
2021/05/06 07:52:53;;;;;;;2.95;1.98;;;12.50;49.90;;;;;;5066425;28;20415;-77
2021/05/06 07:55:19;;;;;;;2.20;1.80;;;12.60;50.10;;;;;;5067282;28;20032;-77
2021/05/06 07:57:46;;;;;;;1.98;1.50;;;12.70;50.10;;;;;;5033033;28;20036;-77
2021/05/06 08:00:17;;;;;;;1.92;1.55;;;12.90;50.30;;;;;;5066698;28;20028;-76
2021/05/06 08:02:45;;;;;;;2.65;1.90;;;13.00;50.30;;;;;;5068844;28;20340;-78
2021/05/06 08:05:11;;;;;;;3.58;1.90;;;13.20;50.50;;;;;;5067201;28;20106;-78
2021/05/06 08:07:37;;;;;;;2.10;1.85;;;13.30;50.40;;;;;;5067452;28;20086;-77
2021/05/06 08:10:04;;;;;;;2.15;1.75;;;13.40;50.40;;;;;;5067033;28;20311;-79
2021/05/06 08:12:30;;;;;;;1.50;1.40;;;13.50;50.70;;;;;;5067314;28;20033;-78
2021/05/06 08:14:57;;;;;;;3.17;1.83;;;13.60;50.40;;;;;;5067281;28;20024;-79
2021/05/06 08:17:24;;;;;;;2.65;1.80;;;13.70;50.40;;;;;;5067541;28;20032;-76
2021/05/06 08:19:50;;;;;;;2.17;1.58;;;13.70;50.30;;;;;;5067229;28;20353;-77
2021/05/06 08:22:16;;;;;;;1.80;1.65;;;13.60;50.20;;;;;;5050795;28;20085;-79
2021/05/06 08:24:44;;;;;;;3.15;1.92;;;13.70;50.40;;;;;;5050561;28;20032;-78
2021/05/06 08:27:11;;;;;;;3.95;2.45;;;13.70;50.70;;;;;;5050912;28;20114;-80
2021/05/06 08:29:37;;;;;;;2.20;2.00;;;13.80;51.30;;;;;;5033490;28;20035;-82
2021/05/06 08:32:04;;;;;;;2.90;2.13;;;14.00;51.80;;;;;;5050069;28;20029;-79
2021/05/06 08:34:30;;;;;;;5.05;2.05;;;14.10;52.00;;;;;;5067451;28;20028;-79
2021/05/06 08:36:58;;;;;;;3.00;1.88;;;14.40;52.50;;;;;;5049902;28;20032;-81
2021/05/06 08:39:24;;;;;;;4.10;1.92;;;14.60;52.80;;;;;;5050502;28;20024;-80
2021/05/06 08:41:50;;;;;;;4.50;2.67;;;14.80;52.90;;;;;;5067342;28;20418;-81
2021/05/06 08:44:20;;;;;;;2.88;2.38;;;15.00;53.00;;;;;;5050242;28;20029;-81
2021/05/06 08:47:12;;;;;;;3.45;2.13;;;15.20;53.10;;;;;;5067092;28;20040;-80
2021/05/06 08:49:35;;;;;;;3.13;2.10;;;15.40;53.20;;;;;;5066691;28;20043;-81
2021/05/06 08:52:05;;;;;;;5.10;2.25;;;15.60;53.30;;;;;;5050358;28;20492;-81
2021/05/06 08:54:31;;;;;;;6.22;2.38;;;15.70;53.20;;;;;;5050353;28;20078;-81
2021/05/06 08:56:58;;;;;;;3.80;2.08;;;15.80;53.20;;;;;;5050016;28;20623;-80
2021/05/06 08:59:25;;;;;;;6.43;2.90;;;15.90;53.10;;;;;;5050223;28;20129;-80
2021/05/06 09:01:53;;;;;;;3.13;1.98;;;16.00;53.20;;;;;;5067034;28;20058;-81
2021/05/06 09:04:20;;;;;;;8.82;2.72;;;16.10;53.30;;;;;;5049854;28;20067;-79
2021/05/06 09:06:57;;;;;;;2.65;2.33;;;16.30;53.50;;;;;;5050305;28;20099;-81
2021/05/06 09:09:28;;;;;;;3.03;2.08;;;16.50;53.50;;;;;;5066705;28;20025;-80
2021/05/06 09:11:56;;;;;;;3.88;2.17;;;16.60;53.30;;;;;;5066601;28;20032;-81
2021/05/06 09:14:52;;;;;;;3.28;2.10;;;16.80;53.30;;;;;;5066056;28;20032;-80
2021/05/06 09:17:33;;;;;;;2.97;2.67;;;16.90;53.10;;;;;;5066261;28;20388;-80
2021/05/06 09:20:07;;;;;;;2.90;2.00;;;17.10;53.10;;;;;;5066830;28;20036;-81
2021/05/06 09:22:36;;;;;;;2.22;1.85;;;17.20;52.90;;;;;;5066662;28;20127;-80
2021/05/06 09:25:25;;;;;;;2.45;1.63;;;17.30;52.80;;;;;;5066133;28;20040;-82
2021/05/06 09:28:13;;;;;;;2.13;1.73;;;17.40;52.50;;;;;;5050274;28;20047;-82
2021/05/06 09:31:00;;;;;;;6.13;2.55;;;17.50;52.40;;;;;;5050102;28;20064;-82
2021/05/06 09:33:35;;;;;;;3.97;1.90;;;17.50;52.10;;;;;;5031220;28;20028;-82
2021/05/06 09:36:12;;;;;;;2.88;2.08;;;17.60;52.10;;;;;;5046885;28;20559;-80
2021/05/06 09:38:43;;;;;;;2.78;1.75;;;17.70;52.00;;;;;;5073524;28;20037;-84
2021/05/06 09:41:11;;;;;;;2.67;2.00;;;17.70;51.80;;;;;;5051466;28;20025;-84
2021/05/06 09:43:42;;;;;;;3.83;2.22;;;17.70;51.70;;;;;;5051467;28;20534;-83
2021/05/06 09:46:41;;;;;;;2.63;1.85;;;17.70;51.60;;;;;;5067988;28;20037;-80
2021/05/06 09:49:13;;;;;;;4.97;2.15;;;17.70;51.30;;;;;;5047293;28;20021;-82
2021/05/06 09:51:44;;;;;;;2.00;1.85;;;17.80;51.50;;;;;;5063605;28;20048;-81
2021/05/06 09:54:13;;;;;;;3.40;1.80;;;17.90;51.60;;;;;;5064553;28;20032;-80
2021/05/06 09:56:41;;;;;;;2.50;1.90;;;17.90;51.50;;;;;;5064538;28;20429;-79
2021/05/06 09:59:20;;;;;;;1.70;1.60;;;18.00;51.50;;;;;;5047039;28;20063;-84
2021/05/06 10:01:47;;;;;;;2.05;1.88;;;18.00;51.30;;;;;;5032829;28;20048;-83
2021/05/06 10:04:51;;;;;;;2.80;1.90;;;18.10;51.40;;;;;;5082066;28;20101;-82
2021/05/06 10:07:53;;;;;;;1.43;1.33;;;18.20;51.30;;;;;;5067857;28;20124;-80
2021/05/06 10:10:24;;;;;;;2.80;1.55;;;18.40;51.50;;;;;;5050728;28;20261;-84
2021/05/06 10:12:51;;;;;;;1.75;1.48;;;18.50;51.30;;;;;;5050845;28;20039;-85
2021/05/06 10:15:18;;;;;;;1.60;1.50;;;18.60;51.30;;;;;;5054256;28;20051;-83
2021/05/06 10:17:56;;;;;;;3.42;1.65;;;18.60;51.00;;;;;;5068218;28;20032;-88
2021/05/06 10:20:25;;;;;;;2.00;1.48;;;18.70;50.80;;;;;;5049339;28;20029;-81
2021/05/06 10:22:55;;;;;;;1.80;1.50;;;18.80;50.90;;;;;;5065789;28;20109;-81
2021/05/06 10:25:23;;;;;;;1.60;1.50;;;18.80;50.70;;;;;;5065909;28;20091;-82
2021/05/06 10:27:50;;;;;;;3.03;1.50;;;18.90;50.70;;;;;;5049415;28;20119;-80
2021/05/06 10:30:18;;;;;;;2.38;1.58;;;19.00;50.70;;;;;;5066391;28;20024;-81
2021/05/06 10:32:46;;;;;;;2.75;1.50;;;19.10;50.70;;;;;;5049557;28;20376;-81
2021/05/06 10:35:22;;;;;;;1.73;1.63;;;19.30;50.90;;;;;;5066852;28;20124;-85
2021/05/06 10:37:59;;;;;;;1.55;1.40;;;19.50;50.80;;;;;;5067252;28;20031;-83
2021/05/06 10:40:34;;;;;;;3.53;1.67;;;19.70;50.70;;;;;;5052695;28;20384;-89
2021/05/06 10:43:28;;;;;;;2.17;1.60;;;19.80;50.60;;;;;;5050332;28;20078;-84
2021/05/06 10:46:03;;;;;;;2.45;1.63;;;19.90;50.40;;;;;;5070274;28;20036;-87
2021/05/06 10:48:58;;;;;;;1.33;1.23;;;20.10;50.70;;;;;;5033347;28;20137;-80
2021/05/06 10:51:45;;;;;;;2.25;1.58;;;20.20;50.60;;;;;;5066461;28;20396;-81
2021/05/06 10:54:39;;;;;;;1.48;1.38;;;20.40;50.70;;;;;;5067553;28;20543;-80
2021/05/06 10:57:09;;;;;;;2.55;1.48;;;20.50;50.50;;;;;;5065287;28;20097;-80
2021/05/06 10:59:43;;;;;;;2.55;1.58;;;20.60;50.50;;;;;;5048509;28;20025;-81
2021/05/06 11:02:10;;;;;;;2.25;1.42;;;20.80;50.60;;;;;;5049060;28;20032;-80
2021/05/06 11:04:38;;;;;;;2.42;1.27;;;21.00;50.70;;;;;;5065317;28;20051;-79
2021/05/06 11:07:18;;;;;;;1.60;1.35;;;21.10;50.60;;;;;;5066934;28;20029;-81
2021/05/06 11:09:46;;;;;;;2.90;2.00;;;21.20;50.30;;;;;;5048421;28;20515;-83
2021/05/06 11:12:15;;;;;;;1.70;1.40;;;21.40;50.60;;;;;;5049500;28;20028;-81
2021/05/06 11:15:03;;;;;;;2.42;1.50;;;21.50;50.50;;;;;;5048938;28;20067;-79
2021/05/06 11:17:32;;;;;;;1.60;1.40;;;21.60;50.30;;;;;;5066004;28;20507;-80
2021/05/06 11:20:25;;;;;;;2.55;1.45;;;21.60;50.10;;;;;;5067311;28;20035;-83
2021/05/06 11:22:57;;;;;;;1.30;1.20;;;21.60;50.00;;;;;;5051407;28;20029;-83
2021/05/06 11:25:30;;;;;;;1.52;1.30;;;21.60;50.00;;;;;;5068704;28;20561;-81
2021/05/06 11:28:03;;;;;;;1.70;1.45;;;21.50;49.70;;;;;;5052017;28;20107;-83
2021/05/06 11:30:37;;;;;;;1.30;1.20;;;21.50;49.70;;;;;;5070726;28;20036;-82
2021/05/06 11:33:19;;;;;;;2.03;1.40;;;21.50;49.40;;;;;;5068445;28;20034;-81
2021/05/06 11:36:08;;;;;;;1.52;1.20;;;21.50;49.40;;;;;;5069460;28;20178;-82
2021/05/06 11:38:38;;;;;;;1.58;1.48;;;21.50;49.20;;;;;;5048442;28;20143;-81
2021/05/06 11:41:09;;;;;;;1.50;1.40;;;21.60;49.40;;;;;;5048620;28;20067;-82
2021/05/06 11:43:58;;;;;;;1.67;1.30;;;21.60;49.30;;;;;;5068250;28;20039;-81
2021/05/06 11:46:31;;;;;;;2.53;1.20;;;21.70;49.30;;;;;;5053623;28;20048;-85
2021/05/06 11:49:03;;;;;;;2.22;1.25;;;21.70;49.20;;;;;;5020482;28;20056;-83
2021/05/06 11:51:44;;;;;;;1.42;1.20;;;21.90;49.40;;;;;;5069098;28;20090;-85
2021/05/06 11:54:16;;;;;;;1.20;1.10;;;22.00;49.30;;;;;;5069437;28;20570;-83
2021/05/06 11:56:57;;;;;;;1.25;1.15;;;22.30;49.50;;;;;;5069705;28;20036;-80
2021/05/06 11:59:25;;;;;;;2.00;1.20;;;22.40;49.20;;;;;;5068814;28;20028;-80
2021/05/06 12:01:54;;;;;;;1.45;1.27;;;22.40;49.20;;;;;;5067999;28;20031;-81
2021/05/06 12:04:34;;;;;;;2.47;1.20;;;22.40;49.10;;;;;;5050464;28;20032;-83
2021/05/06 12:07:19;;;;;;;1.50;1.20;;;22.20;48.60;;;;;;5050012;28;20110;-78
2021/05/06 12:09:46;;;;;;;1.23;1.13;;;22.20;48.60;;;;;;5050107;28;20543;-78
2021/05/06 12:12:25;;;;;;;2.35;1.63;;;22.20;48.80;;;;;;5049418;28;20148;-81
2021/05/06 12:14:58;;;;;;;1.17;1.10;;;22.20;48.60;;;;;;5049945;28;20048;-80
2021/05/06 12:17:24;;;;;;;1.40;1.10;;;22.30;48.70;;;;;;5049201;28;20060;-85
2021/05/06 12:19:50;;;;;;;1.23;1.13;;;22.30;48.50;;;;;;5067893;28;20028;-79
2021/05/06 12:22:17;;;;;;;1.35;1.25;;;22.20;48.20;;;;;;5068871;28;20043;-80
2021/05/06 12:24:46;;;;;;;1.27;1.15;;;22.20;48.20;;;;;;5068842;28;20067;-78
2021/05/06 12:27:29;;;;;;;1.55;1.27;;;22.20;48.30;;;;;;5067539;28;20044;-82
2021/05/06 12:30:02;;;;;;;1.77;1.45;;;22.10;48.10;;;;;;5069396;28;20053;-81
2021/05/06 12:32:32;;;;;;;1.20;1.10;;;22.20;48.20;;;;;;5069038;28;20364;-83
2021/05/06 12:35:00;;;;;;;1.15;0.90;;;22.30;48.30;;;;;;5069250;28;20028;-82
2021/05/06 12:37:29;;;;;;;1.85;1.30;;;22.40;48.30;;;;;;5067611;28;20039;-81
2021/05/06 12:39:56;;;;;;;1.33;1.15;;;22.50;48.20;;;;;;5068923;28;20586;-82
2021/05/06 12:42:33;;;;;;;1.08;0.93;;;22.50;48.00;;;;;;5066060;28;20112;-82
2021/05/06 12:45:01;;;;;;;1.80;1.13;;;22.40;47.70;;;;;;5049589;28;20085;-79
2021/05/06 12:47:29;;;;;;;1.65;1.25;;;22.50;48.00;;;;;;5049463;28;20037;-80
2021/05/06 12:50:22;;;;;;;1.00;0.82;;;22.60;48.10;;;;;;5048872;28;20052;-79
2021/05/06 12:53:06;;;;;;;1.60;1.10;;;22.70;48.10;;;;;;5048057;28;20477;-78
2021/05/06 12:55:38;;;;;;;1.90;1.20;;;22.80;48.20;;;;;;5048140;28;20037;-76
2021/05/06 12:58:15;;;;;;;2.20;1.33;;;22.90;48.10;;;;;;5047874;28;20384;-75
2021/05/06 13:00:42;;;;;;;1.42;1.02;;;23.10;48.30;;;;;;5045659;28;20449;-76
2021/05/06 13:03:10;;;;;;;1.10;1.00;;;23.20;48.20;;;;;;5047848;28;20198;-77
2021/05/06 13:05:48;;;;;;;1.63;1.02;;;23.40;48.30;;;;;;5013087;28;20098;-78
2021/05/06 13:08:15;;;;;;;1.73;0.98;;;23.60;48.30;;;;;;5047182;28;20317;-79
2021/05/06 13:10:46;;;;;;;0.95;0.82;;;23.70;48.40;;;;;;5046065;28;20025;-79
2021/05/06 13:13:37;;;;;;;1.65;1.20;;;23.60;48.00;;;;;;5046405;28;20500;-78
2021/05/06 13:16:03;;;;;;;1.70;1.08;;;23.50;47.80;;;;;;5046018;28;20071;-78
2021/05/06 13:18:29;;;;;;;1.70;1.10;;;23.40;47.90;;;;;;5054227;28;20033;-79
2021/05/06 13:20:55;;;;;;;1.48;1.10;;;23.50;48.10;;;;;;5049428;28;20055;-79
2021/05/06 13:23:30;;;;;;;1.42;1.13;;;23.60;48.10;;;;;;5067861;28;20066;-77
2021/05/06 13:25:57;;;;;;;1.23;1.13;;;23.70;47.90;;;;;;5067916;28;20063;-77
2021/05/06 13:28:33;;;;;;;1.02;0.98;;;23.70;47.90;;;;;;5066858;28;20021;-79
2021/05/06 13:31:21;;;;;;;1.02;0.88;;;23.60;47.60;;;;;;5067036;28;20082;-77
2021/05/06 13:33:50;;;;;;;1.95;1.27;;;23.40;47.30;;;;;;5052359;28;20085;-77
2021/05/06 13:36:23;;;;;;;1.40;1.23;;;23.30;47.40;;;;;;5046871;28;20037;-78
2021/05/06 13:39:00;;;;;;;;;;;23.30;47.50;;;;;;5046886;28;20039;-80
2021/05/06 13:41:38;;;;;;;1.85;0.93;;;23.40;47.90;;;;;;5046986;28;19913;-79
2021/05/06 13:44:06;;;;;;;1.35;1.25;;;23.30;47.50;;;;;;5046314;28;20041;-77
2021/05/06 13:46:34;;;;;;;1.13;1.02;;;23.20;47.30;;;;;;5046885;28;20049;-77
2021/05/06 13:49:01;;;;;;;4.03;1.30;;;23.20;47.40;;;;;;5057640;28;20387;-77
2021/05/06 13:51:29;;;;;;;1.27;1.17;;;23.10;47.20;;;;;;5065351;28;20044;-77
2021/05/06 13:53:55;;;;;;;1.58;1.30;;;23.00;47.10;;;;;;5048088;28;20033;-77
2021/05/06 13:56:22;;;;;;;1.45;1.10;;;22.90;47.00;;;;;;5062875;28;20044;-78
2021/05/06 13:58:49;;;;;;;3.15;1.10;;;22.90;47.10;;;;;;5064269;28;20036;-77
2021/05/06 14:01:16;;;;;;;1.15;1.05;;;22.90;47.20;;;;;;5048842;28;20039;-80
2021/05/06 14:03:42;;;;;;;1.25;1.15;;;23.10;47.50;;;;;;5065564;28;20032;-78
2021/05/06 14:06:08;;;;;;;1.70;1.20;;;23.30;47.70;;;;;;5049012;28;20040;-78
2021/05/06 14:08:35;;;;;;;2.30;1.38;;;23.50;47.90;;;;;;5066324;28;20133;-78
2021/05/06 14:11:02;;;;;;;1.27;1.17;;;23.80;48.20;;;;;;5067253;28;20032;-78
2021/05/06 14:13:30;;;;;;;1.20;1.10;;;24.10;48.50;;;;;;5048947;28;20029;-76
2021/05/06 14:15:56;;;;;;;1.15;1.00;;;24.30;48.50;;;;;;5065816;28;20032;-78
2021/05/06 14:18:22;;;;;;;1.33;1.10;;;24.40;48.50;;;;;;5066722;28;20341;-77
2021/05/06 14:20:48;;;;;;;1.27;1.02;;;24.40;48.30;;;;;;5066956;28;20040;-79
2021/05/06 14:23:17;;;;;;;1.15;1.00;;;24.40;48.30;;;;;;5059499;28;20029;-78
2021/05/06 14:25:43;;;;;;;1.30;1.20;;;24.30;48.10;;;;;;5045934;28;20512;-78
2021/05/06 14:28:09;;;;;;;1.40;1.10;;;24.20;48.00;;;;;;5046848;28;20171;-78
2021/05/06 14:30:35;;;;;;;1.23;1.13;;;24.20;48.10;;;;;;5045970;28;20029;-79
2021/05/06 14:33:02;;;;;;;1.52;1.00;;;24.20;48.20;;;;;;5053108;28;20312;-79
2021/05/06 14:35:28;;;;;;;2.90;1.08;;;24.30;48.40;;;;;;5064985;28;20061;-78
2021/05/06 14:37:55;;;;;;;1.58;1.38;;;24.40;48.40;;;;;;5066687;28;20040;-78
2021/05/06 14:40:21;;;;;;;1.38;1.05;;;24.50;48.50;;;;;;5066738;28;20025;-78
2021/05/06 14:42:47;;;;;;;1.77;1.27;;;24.60;48.50;;;;;;5064849;28;20518;-77
2021/05/06 14:45:14;;;;;;;1.20;1.10;;;24.70;48.70;;;;;;5066113;28;20036;-79
2021/05/06 14:47:40;;;;;;;1.45;1.00;;;24.80;48.80;;;;;;5048658;28;20043;-78
2021/05/06 14:50:11;;;;;;;1.42;1.15;;;24.90;48.80;;;;;;5047729;28;20063;-78
2021/05/06 14:52:38;;;;;;;1.10;1.00;;;25.10;48.90;;;;;;5064253;28;20045;-78
2021/05/06 14:55:07;;;;;;;1.58;1.10;;;25.20;48.80;;;;;;5050155;28;20484;-77
2021/05/06 14:57:33;;;;;;;1.08;0.90;;;25.40;48.80;;;;;;5068867;28;20028;-82
2021/05/06 14:59:59;;;;;;;1.13;1.02;;;25.60;48.70;;;;;;5051425;28;20017;-80
2021/05/06 15:02:26;;;;;;;1.50;0.80;;;25.80;48.60;;;;;;5068442;28;20043;-79
2021/05/06 15:04:52;;;;;;;1.05;0.95;;;25.90;48.50;;;;;;5050033;28;20550;-80
2021/05/06 15:07:18;;;;;;;1.20;1.10;;;26.00;48.40;;;;;;5031251;28;20033;-78
2021/05/06 15:09:44;;;;;;;1.02;0.90;;;26.20;48.40;;;;;;5064376;28;20024;-79
2021/05/06 15:12:10;;;;;;;1.10;1.00;;;26.30;48.40;;;;;;5068723;28;20066;-80
2021/05/06 15:14:36;;;;;;;1.25;0.90;;;26.40;48.30;;;;;;5069502;28;20032;-82
2021/05/06 15:17:02;;;;;;;1.67;0.90;;;26.50;48.20;;;;;;5069386;28;20178;-81
2021/05/06 15:19:28;;;;;;;0.85;0.85;;;26.70;48.10;;;;;;5069882;28;20028;-80
2021/05/06 15:21:54;;;;;;;1.55;0.93;;;26.70;48.00;;;;;;5068261;28;20044;-79
2021/05/06 15:24:20;;;;;;;0.82;0.82;;;26.80;47.90;;;;;;5069782;28;20032;-79
2021/05/06 15:26:47;;;;;;;1.00;0.90;;;26.90;47.80;;;;;;5066936;28;20064;-79
2021/05/06 15:29:13;;;;;;;1.45;1.10;;;27.00;47.80;;;;;;5066272;28;20320;-78
2021/05/06 15:31:39;;;;;;;0.98;0.90;;;27.00;47.70;;;;;;5068278;28;20032;-79
2021/05/06 15:34:05;;;;;;;1.00;0.90;;;27.10;47.70;;;;;;5069218;28;20028;-77
2021/05/06 15:36:31;;;;;;;1.10;0.70;;;27.20;47.70;;;;;;5068041;28;20035;-78
2021/05/06 15:39:01;;;;;;;1.52;1.10;;;27.20;47.50;;;;;;5068960;28;20028;-79
2021/05/06 15:41:27;;;;;;;0.90;0.60;;;27.30;47.50;;;;;;5069627;28;20428;-80
2021/05/06 15:43:55;;;;;;;1.02;0.80;;;27.30;47.40;;;;;;5055285;28;20033;-77
2021/05/06 15:46:21;;;;;;;0.88;0.82;;;27.30;47.30;;;;;;5049095;28;20045;-78
2021/05/06 15:48:47;;;;;;;1.63;1.02;;;27.30;47.20;;;;;;5047840;28;20312;-80
2021/05/06 15:51:13;;;;;;;1.50;1.25;;;27.40;47.10;;;;;;5049020;28;20033;-79
2021/05/06 15:53:39;;;;;;;1.65;1.10;;;27.40;47.00;;;;;;5039317;28;20048;-79
2021/05/06 15:56:05;;;;;;;1.85;0.98;;;27.50;46.90;;;;;;5058176;28;20040;-79
2021/05/06 15:58:34;;;;;;;1.13;1.02;;;27.50;46.80;;;;;;5061965;28;20115;-77
2021/05/06 16:01:01;;;;;;;1.08;0.70;;;27.60;46.80;;;;;;5067477;28;20113;-77
2021/05/06 16:03:30;;;;;;;0.88;0.70;;;27.60;46.60;;;;;;5068044;28;20048;-77
2021/05/06 16:05:56;;;;;;;0.75;0.65;;;27.60;46.50;;;;;;5047087;28;20126;-78
2021/05/06 16:08:23;;;;;;;2.67;0.90;;;27.50;46.40;;;;;;5059518;28;20084;-78
2021/05/06 16:10:51;;;;;;;1.42;0.63;;;27.50;46.50;;;;;;5046074;28;20047;-80
2021/05/06 16:13:18;;;;;;;1.50;0.90;;;27.40;46.30;;;;;;5046501;28;20052;-82
2021/05/06 16:15:45;;;;;;;1.45;0.85;;;27.40;46.30;;;;;;5045668;28;20457;-79
2021/05/06 16:18:11;;;;;;;1.67;0.90;;;27.40;46.30;;;;;;5047283;28;20143;-79
2021/05/06 16:20:40;;;;;;;2.08;0.82;;;27.40;46.30;;;;;;5047399;28;20056;-79
2021/05/06 16:23:11;;;;;;;0.73;0.68;;;27.30;46.20;;;;;;5046054;28;20479;-79
2021/05/06 16:25:38;;;;;;;0.90;0.70;;;27.40;46.20;;;;;;5048179;28;20200;-79
2021/05/06 16:28:05;;;;;;;2.28;0.90;;;27.30;46.20;;;;;;5048710;28;20090;-82
2021/05/06 16:30:32;;;;;;;0.57;0.57;;;27.40;46.30;;;;;;5048891;28;20056;-80
2021/05/06 16:32:59;;;;;;;2.05;0.85;;;27.40;46.20;;;;;;5048207;28;20171;-79